createdAt,value
2018-04-11T00:00:26.824Z,43.14
2018-04-11T00:01:27.395Z,43.80
2018-04-11T00:02:27.968Z,43.50
2018-04-11T00:03:28.542Z,41.87
2018-04-11T00:04:29.116Z,41.20
2018-04-11T00:05:29.690Z,41.01
2018-04-11T00:06:30.266Z,38.91
2018-04-11T00:07:30.840Z,39.48
2018-04-11T00:08:31.417Z,38.24
2018-04-11T00:09:31.990Z,37.66
2018-04-11T00:10:32.565Z,37.48
2018-04-11T00:11:33.138Z,37.48
2018-04-11T00:12:33.713Z,35.94
2018-04-11T00:13:34.285Z,37.38
2018-04-11T00:14:34.858Z,37.38
2018-04-11T00:15:35.432Z,36.61
2018-04-11T00:16:36.006Z,37.66
2018-04-11T00:17:36.581Z,36.04
2018-04-11T00:18:37.155Z,36.71
2018-04-11T00:19:37.740Z,36.43
2018-04-11T00:20:38.314Z,35.47
2018-04-11T00:21:38.887Z,36.33
2018-04-11T00:22:39.461Z,35.85
2018-04-11T00:23:40.036Z,34.32
2018-04-11T00:24:40.612Z,35.75
2018-04-11T00:25:41.186Z,35.28
2018-04-11T00:26:41.761Z,36.23
2018-04-11T00:27:42.333Z,36.43
2018-04-11T00:28:42.912Z,31.93
2018-04-11T00:29:43.491Z,33.17
2018-04-11T00:30:44.065Z,39.00
2018-04-11T00:31:44.640Z,36.33
2018-04-11T00:32:45.212Z,35.94
2018-04-11T00:33:45.785Z,33.27
2018-04-11T00:34:46.357Z,27.91
2018-04-11T00:35:46.930Z,35.26
2018-04-11T00:36:47.504Z,33.83
2018-04-11T00:37:48.078Z,31.05
2018-04-11T00:38:48.654Z,26.85
2018-04-11T00:39:49.227Z,31.72
2018-04-11T00:40:49.801Z,29.33
2018-04-11T00:41:50.373Z,26.26
2018-04-11T00:42:50.950Z,26.07
2018-04-11T00:43:51.533Z,25.12
2018-04-11T00:44:52.108Z,24.18
2018-04-11T00:45:52.683Z,24.94
2018-04-11T00:46:53.255Z,22.36
2018-04-11T00:47:53.830Z,25.13
2018-04-11T00:48:54.403Z,28.28
2018-04-11T00:49:54.976Z,27.52
2018-04-11T00:50:55.549Z,30.38
2018-04-11T00:51:56.124Z,18.82
2018-04-11T00:52:56.696Z,20.17
2018-04-11T00:53:57.271Z,35.85
2018-04-11T00:54:57.847Z,33.64
2018-04-11T00:55:58.420Z,28.46
2018-04-11T00:56:58.995Z,21.21
2018-04-11T00:57:59.572Z,27.52
2018-04-11T00:59:00.143Z,26.95
2018-04-11T01:00:00.714Z,19.59
2018-04-11T01:01:01.288Z,20.92
2018-04-11T01:02:01.860Z,23.04
2018-04-11T01:03:02.433Z,27.42
2018-04-11T01:04:03.008Z,23.42
2018-04-11T01:05:03.582Z,35.16
2018-04-11T01:06:04.156Z,30.58
2018-04-11T01:07:04.744Z,27.98
2018-04-11T01:08:05.316Z,25.21
2018-04-11T01:09:05.891Z,22.73
2018-04-11T01:10:06.507Z,20.92
2018-04-11T01:11:07.039Z,21.97
2018-04-11T01:12:07.612Z,22.63
2018-04-11T01:13:08.184Z,23.69
2018-04-11T01:14:08.758Z,27.70
2018-04-11T01:15:09.334Z,26.93
2018-04-11T01:16:09.904Z,20.92
2018-04-11T01:17:10.476Z,22.26
2018-04-11T01:18:11.049Z,30.48
2018-04-11T01:19:11.623Z,29.52
2018-04-11T01:20:12.198Z,26.74
2018-04-11T01:21:12.772Z,23.32
2018-04-11T01:22:13.393Z,25.80
2018-04-11T01:23:13.921Z,26.28
2018-04-11T01:24:14.495Z,21.51
2018-04-11T01:25:15.068Z,24.37
2018-04-11T01:26:15.642Z,33.64
2018-04-11T01:27:16.226Z,31.42
2018-04-11T01:28:16.799Z,28.65
2018-04-11T01:29:17.372Z,26.84
2018-04-11T01:30:17.945Z,24.26
2018-04-11T01:31:18.518Z,26.45
2018-04-11T01:32:19.091Z,21.58
2018-04-11T01:33:19.676Z,26.26
2018-04-11T01:34:20.262Z,29.80
2018-04-11T01:35:20.839Z,26.37
2018-04-11T01:36:21.411Z,29.81
2018-04-11T01:37:21.985Z,30.85
2018-04-11T01:38:22.558Z,30.56
2018-04-11T01:39:23.132Z,28.75
2018-04-11T01:40:23.704Z,29.89
2018-04-11T01:41:24.277Z,30.56
2018-04-11T01:42:24.849Z,27.03
2018-04-11T01:43:25.422Z,27.03
2018-04-11T01:44:25.996Z,24.45
2018-04-11T01:45:26.569Z,24.34
2018-04-11T01:46:27.145Z,21.48
2018-04-11T01:47:27.719Z,22.05
2018-04-11T01:48:28.293Z,21.97
2018-04-11T01:49:28.866Z,27.70
2018-04-11T01:50:29.440Z,22.73
2018-04-11T01:51:30.016Z,23.50
2018-04-11T01:52:30.585Z,31.13
2018-04-11T01:53:31.157Z,34.38
2018-04-11T01:54:31.732Z,19.20
2018-04-11T01:55:32.303Z,37.36
2018-04-11T01:56:32.888Z,33.91
2018-04-11T01:57:33.460Z,32.86
2018-04-11T01:58:34.033Z,24.93
2018-04-11T01:59:34.607Z,32.76
2018-04-11T02:00:35.179Z,29.40
2018-04-11T02:01:35.764Z,27.49
2018-04-11T02:02:36.342Z,25.77
2018-04-11T02:03:36.912Z,25.10
2018-04-11T02:04:37.485Z,25.10
2018-04-11T02:05:38.057Z,23.67
2018-04-11T02:06:38.631Z,25.10
2018-04-11T02:07:39.216Z,26.34
2018-04-11T02:08:39.789Z,28.92
2018-04-11T02:09:40.371Z,26.92
2018-04-11T02:10:40.936Z,20.34
2018-04-11T02:11:41.506Z,16.33
2018-04-11T02:12:42.079Z,26.44
2018-04-11T02:13:42.650Z,30.26
2018-04-11T02:14:43.224Z,29.21
2018-04-11T02:15:43.797Z,23.02
2018-04-11T02:16:44.381Z,27.03
2018-04-11T02:17:44.953Z,21.97
2018-04-11T02:18:45.532Z,36.96
2018-04-11T02:19:46.098Z,35.91
2018-04-11T02:20:46.669Z,34.27
2018-04-11T02:21:47.242Z,30.07
2018-04-11T02:22:47.815Z,26.24
2018-04-11T02:23:48.397Z,24.53
2018-04-11T02:24:48.970Z,21.77
2018-04-11T02:25:49.545Z,23.58
2018-04-11T02:26:50.119Z,31.98
2018-04-11T02:27:50.690Z,28.24
2018-04-11T02:28:51.263Z,27.00
2018-04-11T02:29:51.834Z,25.38
2018-04-11T02:30:52.408Z,22.33
2018-04-11T02:31:52.981Z,27.19
2018-04-11T02:32:53.555Z,18.80
2018-04-11T02:33:54.124Z,24.63
2018-04-11T02:34:54.696Z,28.62
2018-04-11T02:35:55.269Z,27.09
2018-04-11T02:36:55.843Z,28.24
2018-04-11T02:37:56.416Z,26.52
2018-04-11T02:38:56.991Z,20.62
2018-04-11T02:39:57.572Z,29.88
2018-04-11T02:40:58.145Z,23.59
2018-04-11T02:41:58.728Z,32.93
2018-04-11T02:42:59.312Z,32.84
2018-04-11T02:43:59.891Z,33.49
2018-04-11T02:45:00.461Z,27.00
2018-04-11T02:46:01.033Z,25.19
2018-04-11T02:47:01.616Z,19.09
2018-04-11T02:48:02.191Z,31.39
2018-04-11T02:49:02.776Z,28.24
2018-04-11T02:50:03.358Z,27.28
2018-04-11T02:51:03.931Z,26.89
2018-04-11T02:52:04.519Z,25.27
2018-04-11T02:53:05.101Z,25.94
2018-04-11T02:54:05.672Z,26.04
2018-04-11T02:55:06.251Z,23.38
2018-04-11T02:56:06.824Z,27.57
2018-04-11T02:57:07.391Z,25.84
2018-04-11T02:58:07.964Z,22.13
2018-04-11T02:59:08.538Z,22.80
2018-04-11T03:00:09.110Z,25.74
2018-04-11T03:01:09.684Z,22.50
2018-04-11T03:02:10.255Z,21.93
2018-04-11T03:03:10.827Z,15.07
2018-04-11T03:04:11.399Z,25.27
2018-04-11T03:05:11.973Z,21.84
2018-04-11T03:06:12.544Z,24.69
2018-04-11T03:07:13.116Z,18.41
2018-04-11T03:08:13.687Z,23.38
2018-04-11T03:09:14.259Z,26.51
2018-04-11T03:10:14.830Z,22.41
2018-04-11T03:11:15.414Z,20.98
2018-04-11T03:12:15.990Z,17.83
2018-04-11T03:13:16.558Z,12.49
2018-04-11T03:14:17.129Z,18.88
2018-04-11T03:15:17.701Z,20.88
2018-04-11T03:16:18.273Z,22.13
2018-04-11T03:17:18.845Z,21.84
2018-04-11T03:18:19.422Z,20.60
2018-04-11T03:19:19.993Z,19.17
2018-04-11T03:20:20.565Z,18.21
2018-04-11T03:21:21.138Z,16.21
2018-04-11T03:22:21.709Z,21.93
2018-04-11T03:23:22.280Z,22.22
2018-04-11T03:24:22.851Z,21.16
2018-04-11T03:25:23.424Z,21.74
2018-04-11T03:26:23.995Z,21.83
2018-04-11T03:27:24.566Z,22.97
2018-04-11T03:28:25.143Z,13.82
2018-04-11T03:29:25.709Z,25.35
2018-04-11T03:30:26.293Z,20.21
2018-04-11T03:31:26.880Z,20.21
2018-04-11T03:32:27.448Z,28.89
2018-04-11T03:33:28.089Z,25.26
2018-04-11T03:34:28.593Z,23.54
2018-04-11T03:35:29.166Z,26.78
2018-04-11T03:36:29.738Z,25.35
2018-04-11T03:37:30.311Z,21.35
2018-04-11T03:38:30.882Z,24.97
2018-04-11T03:39:31.456Z,24.49
2018-04-11T03:40:32.025Z,21.35
2018-04-11T03:41:32.597Z,22.20
2018-04-11T03:42:33.168Z,24.11
2018-04-11T03:43:33.752Z,22.68
2018-04-11T03:44:34.324Z,21.62
2018-04-11T03:45:34.895Z,15.82
2018-04-11T03:46:35.466Z,20.97
2018-04-11T03:47:36.041Z,25.34
2018-04-11T03:48:36.613Z,22.02
2018-04-11T03:49:37.191Z,22.77
2018-04-11T03:50:37.761Z,21.05
2018-04-11T03:51:38.334Z,23.24
2018-04-11T03:52:38.904Z,21.91
2018-04-11T03:53:39.476Z,23.24
2018-04-11T03:54:40.047Z,24.19
2018-04-11T03:55:40.617Z,24.39
2018-04-11T03:56:41.188Z,24.48
2018-04-11T03:57:41.760Z,23.07
2018-04-11T03:58:42.330Z,25.83
2018-04-11T03:59:42.901Z,27.91
2018-04-11T04:00:43.475Z,22.10
2018-04-11T04:01:44.088Z,26.96
2018-04-11T04:02:44.618Z,28.86
2018-04-11T04:03:45.199Z,27.91
2018-04-11T04:04:45.770Z,30.20
2018-04-11T04:05:46.341Z,28.77
2018-04-11T04:06:46.913Z,28.39
2018-04-11T04:07:47.510Z,30.49
2018-04-11T04:08:48.063Z,28.39
2018-04-11T04:09:48.631Z,26.10
2018-04-11T04:10:49.201Z,27.15
2018-04-11T04:11:49.774Z,27.91
2018-04-11T04:12:50.344Z,26.86
2018-04-11T04:13:50.917Z,26.86
2018-04-11T04:14:51.487Z,26.01
2018-04-11T04:15:52.058Z,26.86
2018-04-11T04:16:52.629Z,26.77
2018-04-11T04:17:53.200Z,17.72
2018-04-11T04:18:53.771Z,30.00
2018-04-11T04:19:54.342Z,26.96
2018-04-11T04:20:54.919Z,28.01
2018-04-11T04:21:55.487Z,26.01
2018-04-11T04:22:56.060Z,27.15
2018-04-11T04:23:56.631Z,20.10
2018-04-11T04:24:57.206Z,23.16
2018-04-11T04:25:57.774Z,28.21
2018-04-11T04:26:58.348Z,30.87
2018-04-11T04:27:58.914Z,25.43
2018-04-11T04:28:59.485Z,30.39
2018-04-11T04:30:00.056Z,30.77
2018-04-11T04:31:00.627Z,28.20
2018-04-11T04:32:01.198Z,29.53
2018-04-11T04:33:01.780Z,33.15
2018-04-11T04:34:02.349Z,31.63
2018-04-11T04:35:02.920Z,26.86
2018-04-11T04:36:03.493Z,28.86
2018-04-11T04:37:04.064Z,32.58
2018-04-11T04:38:04.636Z,24.29
2018-04-11T04:39:05.212Z,30.58
2018-04-11T04:40:05.778Z,22.68
2018-04-11T04:41:06.351Z,29.45
2018-04-11T04:42:06.924Z,33.17
2018-04-11T04:43:07.504Z,35.74
2018-04-11T04:44:08.074Z,31.55
2018-04-11T04:45:08.647Z,37.44
2018-04-11T04:46:09.220Z,31.55
2018-04-11T04:47:09.804Z,33.74
2018-04-11T04:48:10.375Z,33.72
2018-04-11T04:49:10.947Z,33.44
2018-04-11T04:50:11.519Z,36.58
2018-04-11T04:51:12.155Z,19.06
2018-04-11T04:52:12.664Z,25.16
2018-04-11T04:53:13.239Z,28.78
2018-04-11T04:54:13.811Z,37.73
2018-04-11T04:55:14.383Z,25.91
2018-04-11T04:56:14.967Z,34.48
2018-04-11T04:57:15.548Z,34.30
2018-04-11T04:58:16.122Z,31.44
2018-04-11T04:59:16.695Z,29.04
2018-04-11T05:00:17.267Z,23.90
2018-04-11T05:01:17.839Z,28.19
2018-04-11T05:02:18.412Z,23.90
2018-04-11T05:03:18.984Z,24.96
2018-04-11T05:04:19.561Z,26.95
2018-04-11T05:05:20.140Z,29.25
2018-04-11T05:06:20.713Z,23.91
2018-04-11T05:07:21.284Z,30.20
2018-04-11T05:08:21.856Z,29.72
2018-04-11T05:09:22.428Z,25.24
2018-04-11T05:10:23.001Z,15.25
2018-04-11T05:11:23.580Z,18.10
2018-04-11T05:12:24.149Z,27.45
2018-04-11T05:13:24.721Z,36.88
2018-04-11T05:14:25.293Z,38.49
2018-04-11T05:15:25.866Z,19.72
2018-04-11T05:16:26.449Z,28.67
2018-04-11T05:17:27.021Z,25.34
2018-04-11T05:18:27.591Z,32.77
2018-04-11T05:19:28.162Z,31.82
2018-04-11T05:20:28.746Z,28.01
2018-04-11T05:21:29.330Z,29.71
2018-04-11T05:22:29.905Z,28.01
2018-04-11T05:23:30.481Z,21.83
2018-04-11T05:24:31.051Z,30.58
2018-04-11T05:25:31.623Z,16.20
2018-04-11T05:26:32.205Z,36.79
2018-04-11T05:27:32.784Z,28.70
2018-04-11T05:28:33.365Z,34.23
2018-04-11T05:29:33.938Z,37.84
2018-04-11T05:30:34.511Z,34.31
2018-04-11T05:31:35.083Z,43.94
2018-04-11T05:32:35.668Z,33.36
2018-04-11T05:33:36.243Z,37.93
2018-04-11T05:34:36.815Z,39.92
2018-04-11T05:35:37.388Z,35.84
2018-04-11T05:36:37.961Z,38.87
2018-04-11T05:37:38.545Z,37.74
2018-04-11T05:38:39.118Z,40.58
2018-04-11T05:39:39.691Z,32.98
2018-04-11T05:40:40.265Z,37.54
2018-04-11T05:41:40.849Z,38.68
2018-04-11T05:42:41.421Z,36.68
2018-04-11T05:43:41.995Z,34.96
2018-04-11T05:44:42.571Z,36.66
2018-04-11T05:45:43.144Z,33.42
2018-04-11T05:46:43.719Z,30.29
2018-04-11T05:47:44.288Z,31.82
2018-04-11T05:48:44.861Z,31.32
2018-04-11T05:49:45.436Z,30.00
2018-04-11T05:50:46.009Z,36.01
2018-04-11T05:51:46.584Z,34.77
2018-04-11T05:52:47.168Z,36.28
2018-04-11T05:53:47.742Z,33.42
2018-04-11T05:54:48.317Z,32.75
2018-04-11T05:55:48.889Z,31.44
2018-04-11T05:56:49.463Z,34.30
2018-04-11T05:57:50.037Z,32.96
2018-04-11T05:58:50.650Z,30.77
2018-04-11T05:59:51.198Z,36.39
2018-04-11T06:00:51.817Z,26.96
2018-04-11T06:01:52.348Z,38.01
2018-04-11T06:02:52.923Z,37.44
2018-04-11T06:03:53.499Z,36.77
2018-04-11T06:04:54.073Z,36.77
2018-04-11T06:05:54.666Z,37.06
2018-04-11T06:06:55.221Z,31.82
2018-04-11T06:07:55.801Z,40.01
2018-04-11T06:08:56.374Z,41.44
2018-04-11T06:09:56.947Z,40.58
2018-04-11T06:10:57.520Z,41.06
2018-04-11T06:11:58.094Z,39.44
2018-04-11T06:12:58.678Z,37.92
2018-04-11T06:13:59.252Z,39.15
2018-04-11T06:14:59.827Z,38.39
2018-04-11T06:16:00.402Z,36.12
2018-04-11T06:17:00.999Z,45.08
2018-04-11T06:18:01.550Z,43.75
2018-04-11T06:19:02.123Z,42.89
2018-04-11T06:20:02.714Z,40.97
2018-04-11T06:21:03.273Z,42.99
2018-04-11T06:22:03.849Z,46.70
2018-04-11T06:23:04.483Z,46.89
2018-04-11T06:24:05.008Z,44.20
2018-04-11T06:25:05.583Z,42.11
2018-04-11T06:26:06.210Z,42.96
2018-04-11T06:27:06.733Z,40.60
2018-04-11T06:28:07.310Z,47.47
2018-04-11T06:29:07.881Z,46.01
2018-04-11T06:30:08.455Z,44.42
2018-04-11T06:31:09.031Z,43.84
2018-04-11T06:32:09.605Z,46.99
2018-04-11T06:33:10.181Z,42.99
2018-04-11T06:34:10.755Z,42.91
2018-04-11T06:35:11.330Z,49.87
2018-04-11T06:36:11.906Z,55.09
2018-04-11T06:37:12.491Z,45.47
2018-04-11T06:38:13.068Z,48.35
2018-04-11T06:39:13.669Z,40.63
2018-04-11T06:40:14.215Z,51.43
2018-04-11T06:41:14.791Z,55.79
2018-04-11T06:42:15.366Z,53.09
2018-04-11T06:43:15.944Z,51.47
2018-04-11T06:44:16.515Z,50.52
2018-04-11T06:45:17.092Z,49.95
2018-04-11T06:46:17.666Z,51.56
2018-04-11T06:47:18.266Z,52.73
2018-04-11T06:48:18.815Z,49.87
2018-04-11T06:49:19.392Z,55.79
2018-04-11T06:50:19.968Z,56.20
2018-04-11T06:51:20.551Z,55.53
2018-04-11T06:52:21.127Z,60.58
2018-04-11T06:53:21.712Z,57.15
2018-04-11T06:54:22.289Z,62.02
2018-04-11T06:55:22.866Z,57.22
2018-04-11T06:56:23.448Z,55.91
2018-04-11T06:57:24.023Z,61.73
2018-04-11T06:58:24.598Z,59.63
2018-04-11T06:59:25.171Z,64.97
2018-04-11T07:00:25.747Z,61.16
2018-04-11T07:01:26.323Z,63.45
2018-04-11T07:02:26.899Z,58.01
2018-04-11T07:03:27.474Z,64.02
2018-04-11T07:04:28.049Z,64.78
2018-04-11T07:05:28.633Z,62.78
2018-04-11T07:06:29.210Z,62.02
2018-04-11T07:07:29.793Z,62.21
2018-04-11T07:08:30.367Z,62.21
2018-04-11T07:09:30.952Z,63.57
2018-04-11T07:10:31.527Z,66.15
2018-04-11T07:11:32.101Z,64.05
2018-04-11T07:12:32.682Z,66.06
2018-04-11T07:13:33.262Z,56.51
2018-04-11T07:14:33.837Z,59.66
2018-04-11T07:15:34.414Z,68.06
2018-04-11T07:16:34.988Z,58.70
2018-04-11T07:17:35.575Z,62.84
2018-04-11T07:18:36.150Z,66.09
2018-04-11T07:19:36.729Z,64.56
2018-04-11T07:20:37.301Z,69.15
2018-04-11T07:21:37.879Z,68.96
2018-04-11T07:22:38.455Z,74.69
2018-04-11T07:23:39.029Z,73.88
2018-04-11T07:24:39.621Z,70.26
2018-04-11T07:25:40.191Z,71.12
2018-04-11T07:26:40.765Z,67.24
2018-04-11T07:27:41.342Z,68.67
2018-04-11T07:28:41.916Z,73.67
2018-04-11T07:29:42.491Z,72.30
2018-04-11T07:30:43.065Z,70.33
2018-04-11T07:31:43.641Z,70.61
2018-04-11T07:32:44.221Z,79.22
2018-04-11T07:33:44.827Z,78.03
2018-04-11T07:34:45.367Z,73.16
2018-04-11T07:35:45.942Z,71.06
2018-04-11T07:36:46.530Z,71.19
2018-04-11T07:37:47.118Z,77.21
2018-04-11T07:38:47.695Z,74.11
2018-04-11T07:39:48.270Z,76.73
2018-04-11T07:40:48.846Z,71.57
2018-04-11T07:41:49.421Z,73.33
2018-04-11T07:42:50.000Z,78.87
2018-04-11T07:43:50.571Z,77.11
2018-04-11T07:44:51.158Z,79.22
2018-04-11T07:45:51.733Z,76.35
2018-04-11T07:46:52.310Z,80.88
2018-04-11T07:47:52.884Z,78.68
2018-04-11T07:48:53.472Z,76.86
2018-04-11T07:49:54.054Z,79.44
2018-04-11T07:50:54.633Z,79.54
2018-04-11T07:51:55.209Z,80.21
2018-04-11T07:52:55.785Z,78.58
2018-04-11T07:53:56.363Z,82.41
2018-04-11T07:54:56.939Z,81.55
2018-04-11T07:55:57.515Z,77.63
2018-04-11T07:56:58.092Z,76.29
2018-04-11T07:57:58.668Z,79.58
2018-04-11T07:58:59.244Z,80.21
2018-04-11T07:59:59.823Z,82.74
2018-04-11T08:01:00.409Z,81.78
2018-04-11T08:02:00.982Z,84.08
2018-04-11T08:03:01.560Z,82.41
2018-04-11T08:04:02.137Z,78.87
2018-04-11T08:05:02.712Z,82.17
2018-04-11T08:06:03.288Z,80.16
2018-04-11T08:07:03.864Z,81.30
2018-04-11T08:08:04.441Z,88.00
2018-04-11T08:09:05.017Z,84.55
2018-04-11T08:10:05.645Z,84.12
2018-04-11T08:11:06.169Z,83.54
2018-04-11T08:12:06.749Z,85.36
2018-04-11T08:13:07.324Z,86.80
2018-04-11T08:14:07.898Z,86.13
2018-04-11T08:15:08.476Z,85.17
2018-04-11T08:16:09.056Z,88.04
2018-04-11T08:17:09.630Z,89.00
2018-04-11T08:18:10.263Z,86.46
2018-04-11T08:19:10.797Z,89.29
2018-04-11T08:20:11.384Z,86.18
2018-04-11T08:21:11.963Z,84.94
2018-04-11T08:22:12.550Z,87.37
2018-04-11T08:23:13.182Z,89.00
2018-04-11T08:24:13.717Z,83.45
2018-04-11T08:25:14.336Z,86.94
2018-04-11T08:26:14.914Z,88.71
2018-04-11T08:27:15.489Z,89.58
2018-04-11T08:28:16.077Z,88.33
2018-04-11T08:29:16.654Z,86.94
2018-04-11T08:30:17.237Z,87.66
2018-04-11T08:31:17.813Z,86.36
2018-04-11T08:32:18.390Z,89.00
2018-04-11T08:33:18.977Z,89.67
2018-04-11T08:34:19.564Z,88.62
2018-04-11T08:35:20.129Z,89.67
2018-04-11T08:36:20.706Z,88.56
2018-04-11T08:37:21.283Z,88.18
2018-04-11T08:38:21.863Z,89.58
2018-04-11T08:39:22.436Z,87.32
2018-04-11T08:40:23.012Z,88.76
2018-04-11T08:41:23.589Z,90.77
2018-04-11T08:42:24.166Z,87.41
2018-04-11T08:43:24.752Z,88.56
2018-04-11T08:44:25.334Z,87.03
2018-04-11T08:45:25.928Z,91.82
2018-04-11T08:46:26.496Z,90.48
2018-04-11T08:47:27.075Z,90.00
2018-04-11T08:48:27.652Z,90.62
2018-04-11T08:49:28.231Z,92.01
2018-04-11T08:50:28.807Z,90.58
2018-04-11T08:51:29.384Z,91.77
2018-04-11T08:52:29.998Z,93.88
2018-04-11T08:53:30.537Z,93.69
2018-04-11T08:54:31.116Z,91.00
2018-04-11T08:55:31.695Z,88.61
2018-04-11T08:56:32.273Z,94.69
2018-04-11T08:57:32.850Z,91.96
2018-04-11T08:58:33.428Z,93.44
2018-04-11T08:59:34.016Z,95.07
2018-04-11T09:00:34.597Z,91.53
2018-04-11T09:01:35.180Z,92.49
2018-04-11T09:02:35.763Z,93.21
2018-04-11T09:03:36.335Z,92.15
2018-04-11T09:04:36.914Z,93.49
2018-04-11T09:05:37.491Z,92.15
2018-04-11T09:06:38.069Z,89.90
2018-04-11T09:07:38.647Z,89.90
2018-04-11T09:08:39.234Z,95.12
2018-04-11T09:09:39.814Z,88.75
2018-04-11T09:10:40.402Z,98.14
2018-04-11T09:11:40.983Z,97.56
2018-04-11T09:12:41.559Z,95.36
2018-04-11T09:13:42.137Z,94.59
2018-04-11T09:14:42.715Z,96.37
2018-04-11T09:15:43.292Z,92.30
2018-04-11T09:16:43.870Z,93.54
2018-04-11T09:17:44.447Z,93.88
2018-04-11T09:18:45.024Z,94.21
2018-04-11T09:19:45.601Z,94.35
2018-04-11T09:20:46.182Z,97.09
2018-04-11T09:21:46.758Z,96.56
2018-04-11T09:22:47.334Z,97.23
2018-04-11T09:23:47.923Z,95.12
2018-04-11T09:24:48.511Z,97.86
2018-04-11T09:25:49.089Z,98.72
2018-04-11T09:26:49.667Z,97.66
2018-04-11T09:27:50.245Z,98.57
2018-04-11T09:28:50.832Z,99.44
2018-04-11T09:29:51.421Z,97.90
2018-04-11T09:30:51.999Z,99.01
2018-04-11T09:31:52.633Z,99.99
2018-04-11T09:32:53.158Z,99.99
2018-04-11T09:33:53.736Z,99.82
2018-04-11T09:34:54.324Z,99.99
2018-04-11T09:35:54.902Z,99.99
2018-04-11T09:36:55.480Z,99.99
2018-04-11T09:37:56.059Z,99.99
2018-04-11T09:38:56.636Z,99.99
2018-04-11T09:39:57.220Z,99.05
2018-04-11T09:40:57.796Z,99.49
2018-04-11T09:41:58.411Z,99.99
2018-04-11T09:42:58.966Z,99.99
2018-04-11T09:43:59.540Z,99.99
2018-04-11T09:45:00.117Z,99.99
2018-04-11T09:46:00.697Z,99.30
2018-04-11T09:47:01.281Z,99.30
2018-04-11T09:48:01.866Z,98.96
2018-04-11T09:49:02.445Z,98.77
2018-04-11T09:50:03.026Z,98.82
2018-04-11T09:51:03.605Z,98.34
2018-04-11T09:52:04.182Z,99.01
2018-04-11T09:53:04.762Z,98.72
2018-04-11T09:54:05.341Z,99.49
2018-04-11T09:55:05.920Z,99.99
2018-04-11T09:56:06.510Z,99.99
2018-04-11T09:57:07.088Z,99.54
2018-04-11T09:58:07.665Z,99.40
2018-04-11T09:59:08.244Z,99.68
2018-04-11T10:00:08.823Z,99.59
2018-04-11T10:01:09.405Z,99.68
2018-04-11T10:02:09.984Z,99.54
2018-04-11T10:03:10.560Z,99.44
2018-04-11T10:04:11.150Z,99.99
2018-04-11T10:05:11.730Z,99.99
2018-04-11T10:06:12.318Z,99.99
2018-04-11T10:07:12.898Z,99.92
2018-04-11T10:08:13.477Z,99.99
2018-04-11T10:09:14.057Z,99.99
2018-04-11T10:10:14.636Z,99.99
2018-04-11T10:11:15.215Z,99.99
2018-04-11T10:12:15.794Z,99.99
2018-04-11T10:13:16.375Z,99.99
2018-04-11T10:14:16.954Z,99.99
2018-04-11T10:15:17.535Z,99.99
2018-04-11T10:16:18.113Z,99.99
2018-04-11T10:17:18.694Z,99.99
2018-04-11T10:18:19.275Z,99.99
2018-04-11T10:19:19.864Z,99.99
2018-04-11T10:20:20.440Z,99.99
2018-04-11T10:21:21.019Z,99.99
2018-04-11T10:22:21.599Z,99.99
2018-04-11T10:23:22.178Z,99.99
2018-04-11T10:24:22.767Z,99.99
2018-04-11T10:25:23.347Z,99.99
2018-04-11T10:26:23.925Z,99.99
2018-04-11T10:27:24.506Z,99.99
2018-04-11T10:28:25.084Z,99.99
2018-04-11T10:29:25.663Z,99.99
2018-04-11T10:30:26.251Z,99.99
2018-04-11T10:31:26.821Z,99.99
2018-04-11T10:32:27.399Z,99.99
2018-04-11T10:33:27.977Z,99.99
2018-04-11T10:34:28.556Z,99.99
2018-04-11T10:35:29.144Z,99.99
2018-04-11T10:36:29.724Z,99.99
2018-04-11T10:37:30.304Z,99.99
2018-04-11T10:38:30.884Z,99.68
2018-04-11T10:39:31.461Z,99.54
2018-04-11T10:40:32.041Z,99.99
2018-04-11T10:41:32.618Z,99.99
2018-04-11T10:42:33.197Z,99.99
2018-04-11T10:43:33.779Z,99.99
2018-04-11T10:44:34.357Z,99.99
2018-04-11T10:45:34.936Z,99.99
2018-04-11T10:46:35.516Z,99.99
2018-04-11T10:47:36.095Z,99.99
2018-04-11T10:48:36.675Z,99.88
2018-04-11T10:49:37.253Z,99.68
2018-04-11T10:50:37.833Z,99.21
2018-04-11T10:51:38.423Z,99.44
2018-04-11T10:52:39.002Z,99.99
2018-04-11T10:53:39.582Z,99.99
2018-04-11T10:54:40.171Z,99.99
2018-04-11T10:55:40.750Z,99.99
2018-04-11T10:56:41.329Z,99.99
2018-04-11T10:57:41.908Z,99.26
2018-04-11T10:58:42.486Z,99.99
2018-04-11T10:59:43.064Z,99.99
2018-04-11T11:00:43.646Z,99.68
2018-04-11T11:01:44.223Z,99.21
2018-04-11T11:02:44.805Z,98.49
2018-04-11T11:03:45.383Z,99.35
2018-04-11T11:04:45.963Z,99.98
2018-04-11T11:05:46.544Z,99.99
2018-04-11T11:06:47.130Z,99.99
2018-04-11T11:07:47.717Z,99.99
2018-04-11T11:08:48.307Z,99.99
2018-04-11T11:09:48.894Z,99.99
2018-04-11T11:10:49.476Z,99.99
2018-04-11T11:11:50.055Z,99.99
2018-04-11T11:12:50.634Z,99.99
2018-04-11T11:13:51.225Z,99.99
2018-04-11T11:14:51.802Z,98.77
2018-04-11T11:15:52.387Z,98.00
2018-04-11T11:16:52.961Z,97.62
2018-04-11T11:17:53.544Z,97.96
2018-04-11T11:18:54.124Z,97.86
2018-04-11T11:19:54.716Z,98.72
2018-04-11T11:20:55.292Z,97.86
2018-04-11T11:21:55.871Z,96.27
2018-04-11T11:22:56.450Z,94.25
2018-04-11T11:23:57.042Z,93.43
2018-04-11T11:24:57.626Z,93.09
2018-04-11T11:25:58.204Z,91.36
2018-04-11T11:26:58.786Z,90.01
2018-04-11T11:27:59.367Z,94.01
2018-04-11T11:28:59.949Z,95.60
2018-04-11T11:30:00.527Z,96.94
2018-04-11T11:31:01.109Z,98.49
2018-04-11T11:32:01.688Z,98.77
2018-04-11T11:33:02.266Z,99.49
2018-04-11T11:34:02.849Z,99.99
2018-04-11T11:35:03.432Z,99.93
2018-04-11T11:36:04.010Z,99.93
2018-04-11T11:37:04.602Z,99.83
2018-04-11T11:38:05.180Z,99.99
2018-04-11T11:39:05.772Z,98.72
2018-04-11T11:40:06.350Z,99.99
2018-04-11T11:41:06.933Z,99.88
2018-04-11T11:42:07.509Z,99.99
2018-04-11T11:43:08.089Z,99.78
2018-04-11T11:44:08.669Z,99.78
2018-04-11T11:45:09.250Z,99.99
2018-04-11T11:46:09.841Z,98.96
2018-04-11T11:47:10.425Z,98.39
2018-04-11T11:48:11.001Z,99.26
2018-04-11T11:49:11.581Z,98.39
2018-04-11T11:50:12.160Z,97.91
2018-04-11T11:51:12.738Z,97.76
2018-04-11T11:52:13.319Z,98.53
2018-04-11T11:53:13.900Z,98.72
2018-04-11T11:54:14.480Z,99.21
2018-04-11T11:55:15.060Z,99.01
2018-04-11T11:56:15.637Z,99.11
2018-04-11T11:57:16.221Z,98.96
2018-04-11T11:58:16.810Z,97.09
2018-04-11T11:59:17.399Z,95.45
2018-04-11T12:00:17.977Z,92.13
2018-04-11T12:01:18.557Z,94.35
2018-04-11T12:02:19.167Z,95.02
2018-04-11T12:03:19.717Z,95.31
2018-04-11T12:04:20.296Z,95.36
2018-04-11T12:05:20.875Z,94.15
2018-04-11T12:06:21.456Z,95.02
2018-04-11T12:07:22.033Z,94.68
2018-04-11T12:08:22.616Z,96.80
2018-04-11T12:09:23.206Z,97.71
2018-04-11T12:10:23.786Z,97.91
2018-04-11T12:11:24.363Z,98.29
2018-04-11T12:12:24.943Z,97.47
2018-04-11T12:13:25.523Z,97.52
2018-04-11T12:14:26.106Z,98.39
2018-04-11T12:15:26.681Z,98.29
2018-04-11T12:16:27.263Z,99.44
2018-04-11T12:17:27.850Z,99.99
2018-04-11T12:18:28.431Z,99.99
2018-04-11T12:19:29.069Z,99.99
2018-04-11T12:20:29.593Z,99.99
2018-04-11T12:21:30.170Z,99.99
2018-04-11T12:22:30.751Z,99.99
2018-04-11T12:23:31.331Z,99.99
2018-04-11T12:24:31.911Z,99.99
2018-04-11T12:25:32.493Z,99.99
2018-04-11T12:26:33.071Z,99.99
2018-04-11T12:27:33.651Z,99.99
2018-04-11T12:28:34.231Z,99.99
2018-04-11T12:29:34.865Z,99.99
2018-04-11T12:30:35.399Z,99.99
2018-04-11T12:31:35.979Z,99.99
2018-04-11T12:32:36.558Z,99.99
2018-04-11T12:33:37.137Z,99.99
2018-04-11T12:34:37.717Z,99.99
2018-04-11T12:35:38.296Z,99.99
2018-04-11T12:36:38.875Z,99.99
2018-04-11T12:37:39.453Z,99.99
2018-04-11T12:38:40.034Z,99.99
2018-04-11T12:39:40.624Z,99.99
2018-04-11T12:40:41.212Z,99.99
2018-04-11T12:41:41.791Z,99.99
2018-04-11T12:42:42.368Z,99.99
2018-04-11T12:43:42.952Z,99.99
2018-04-11T12:44:43.537Z,99.99
2018-04-11T12:45:44.116Z,99.99
2018-04-11T12:46:44.695Z,99.99
2018-04-11T12:47:45.276Z,99.99
2018-04-11T12:48:45.853Z,99.99
2018-04-11T12:49:46.430Z,99.73
2018-04-11T12:50:47.009Z,99.99
2018-04-11T12:51:47.590Z,99.99
2018-04-11T12:52:48.170Z,99.99
2018-04-11T12:53:48.749Z,99.99
2018-04-11T12:54:49.329Z,99.49
2018-04-11T12:55:49.906Z,99.54
2018-04-11T12:56:50.485Z,98.86
2018-04-11T12:57:51.063Z,97.66
2018-04-11T12:58:51.639Z,98.91
2018-04-11T12:59:52.220Z,99.99